sensor_id;sensor_type;location;lat;lon;timestamp;temperature;humidity
12874;DHT22;6505;51.114;13.128;2023-05-29T00:00:23;18.90;46.10
12874;DHT22;6505;51.114;13.128;2023-05-29T00:02:53;18.90;46.20
12874;DHT22;6505;51.114;13.128;2023-05-29T00:05:21;18.80;46.20
12874;DHT22;6505;51.114;13.128;2023-05-29T00:07:49;18.80;46.20
12874;DHT22;6505;51.114;13.128;2023-05-29T00:10:17;18.80;46.30
12874;DHT22;6505;51.114;13.128;2023-05-29T00:12:45;18.70;46.30
12874;DHT22;6505;51.114;13.128;2023-05-29T00:15:13;18.70;47.00
12874;DHT22;6505;51.114;13.128;2023-05-29T00:17:41;18.70;46.40
12874;DHT22;6505;51.114;13.128;2023-05-29T00:20:12;18.60;46.40
12874;DHT22;6505;51.114;13.128;2023-05-29T00:22:40;18.70;46.70
12874;DHT22;6505;51.114;13.128;2023-05-29T00:25:08;18.60;46.60
12874;DHT22;6505;51.114;13.128;2023-05-29T00:27:36;18.60;46.50
12874;DHT22;6505;51.114;13.128;2023-05-29T00:30:05;18.50;46.50
12874;DHT22;6505;51.114;13.128;2023-05-29T00:32:34;18.50;46.70
12874;DHT22;6505;51.114;13.128;2023-05-29T00:35:03;18.50;46.60
12874;DHT22;6505;51.114;13.128;2023-05-29T00:37:32;18.40;46.70
12874;DHT22;6505;51.114;13.128;2023-05-29T00:40:01;18.40;46.60
12874;DHT22;6505;51.114;13.128;2023-05-29T00:42:30;18.40;46.70
12874;DHT22;6505;51.114;13.128;2023-05-29T00:44:58;18.40;46.70
12874;DHT22;6505;51.114;13.128;2023-05-29T00:47:27;18.40;46.80
12874;DHT22;6505;51.114;13.128;2023-05-29T00:49:56;18.40;46.90
12874;DHT22;6505;51.114;13.128;2023-05-29T00:52:26;18.30;46.80
12874;DHT22;6505;51.114;13.128;2023-05-29T00:54:56;18.30;46.90
12874;DHT22;6505;51.114;13.128;2023-05-29T00:57:27;18.30;46.90
12874;DHT22;6505;51.114;13.128;2023-05-29T00:59:56;18.20;46.80
12874;DHT22;6505;51.114;13.128;2023-05-29T01:02:28;18.30;47.10
12874;DHT22;6505;51.114;13.128;2023-05-29T01:04:57;18.20;47.00
12874;DHT22;6505;51.114;13.128;2023-05-29T01:07:25;18.20;47.00
12874;DHT22;6505;51.114;13.128;2023-05-29T01:09:53;18.20;47.10
12874;DHT22;6505;51.114;13.128;2023-05-29T01:12:32;18.10;47.00
12874;DHT22;6505;51.114;13.128;2023-05-29T01:15:12;18.10;47.30
12874;DHT22;6505;51.114;13.128;2023-05-29T01:17:59;18.10;47.30
12874;DHT22;6505;51.114;13.128;2023-05-29T01:20:39;18.10;47.30
12874;DHT22;6505;51.114;13.128;2023-05-29T01:23:25;18.00;47.20
12874;DHT22;6505;51.114;13.128;2023-05-29T01:26:12;18.00;47.30
12874;DHT22;6505;51.114;13.128;2023-05-29T01:28:56;18.00;47.20
12874;DHT22;6505;51.114;13.128;2023-05-29T01:31:28;18.00;47.20
12874;DHT22;6505;51.114;13.128;2023-05-29T01:33:58;17.90;47.00
12874;DHT22;6505;51.114;13.128;2023-05-29T01:36:27;17.90;47.20
12874;DHT22;6505;51.114;13.128;2023-05-29T01:38:57;17.90;47.10
12874;DHT22;6505;51.114;13.128;2023-05-29T01:41:26;17.90;47.30
12874;DHT22;6505;51.114;13.128;2023-05-29T01:43:56;17.80;47.20
12874;DHT22;6505;51.114;13.128;2023-05-29T01:46:26;17.90;47.30
12874;DHT22;6505;51.114;13.128;2023-05-29T01:48:54;17.80;47.20
12874;DHT22;6505;51.114;13.128;2023-05-29T01:51:22;17.80;47.20
12874;DHT22;6505;51.114;13.128;2023-05-29T01:53:50;17.80;47.20
12874;DHT22;6505;51.114;13.128;2023-05-29T01:56:19;17.70;47.10
12874;DHT22;6505;51.114;13.128;2023-05-29T01:58:48;17.70;47.30
12874;DHT22;6505;51.114;13.128;2023-05-29T02:01:19;17.70;47.30
12874;DHT22;6505;51.114;13.128;2023-05-29T02:03:48;17.70;47.20
12874;DHT22;6505;51.114;13.128;2023-05-29T02:06:16;17.70;47.30
12874;DHT22;6505;51.114;13.128;2023-05-29T02:08:45;17.60;47.20
12874;DHT22;6505;51.114;13.128;2023-05-29T02:11:13;17.60;47.20
12874;DHT22;6505;51.114;13.128;2023-05-29T02:13:41;17.60;47.30
12874;DHT22;6505;51.114;13.128;2023-05-29T02:16:10;17.60;47.40
12874;DHT22;6505;51.114;13.128;2023-05-29T02:18:40;17.50;47.30
12874;DHT22;6505;51.114;13.128;2023-05-29T02:21:08;17.60;47.30
12874;DHT22;6505;51.114;13.128;2023-05-29T02:23:36;17.50;47.30
12874;DHT22;6505;51.114;13.128;2023-05-29T02:26:04;17.50;47.20
12874;DHT22;6505;51.114;13.128;2023-05-29T02:28:33;17.40;47.20
12874;DHT22;6505;51.114;13.128;2023-05-29T02:31:02;17.40;47.20
12874;DHT22;6505;51.114;13.128;2023-05-29T02:33:30;17.40;47.50
12874;DHT22;6505;51.114;13.128;2023-05-29T02:35:59;17.40;47.40
12874;DHT22;6505;51.114;13.128;2023-05-29T02:38:27;17.40;47.40
12874;DHT22;6505;51.114;13.128;2023-05-29T02:40:55;17.40;47.30
12874;DHT22;6505;51.114;13.128;2023-05-29T02:43:25;17.40;47.40
12874;DHT22;6505;51.114;13.128;2023-05-29T02:45:54;17.30;47.40
12874;DHT22;6505;51.114;13.128;2023-05-29T02:48:22;17.30;47.40
12874;DHT22;6505;51.114;13.128;2023-05-29T02:50:51;17.30;47.40
12874;DHT22;6505;51.114;13.128;2023-05-29T02:53:21;17.30;47.60
12874;DHT22;6505;51.114;13.128;2023-05-29T02:55:50;17.30;47.70
12874;DHT22;6505;51.114;13.128;2023-05-29T02:58:21;17.30;47.70
12874;DHT22;6505;51.114;13.128;2023-05-29T03:00:49;17.20;47.40
12874;DHT22;6505;51.114;13.128;2023-05-29T03:03:17;17.20;47.40
12874;DHT22;6505;51.114;13.128;2023-05-29T03:05:45;17.20;47.10
12874;DHT22;6505;51.114;13.128;2023-05-29T03:08:13;17.20;47.20
12874;DHT22;6505;51.114;13.128;2023-05-29T03:10:44;17.10;47.00
12874;DHT22;6505;51.114;13.128;2023-05-29T03:13:14;17.10;46.90
12874;DHT22;6505;51.114;13.128;2023-05-29T03:15:51;17.10;46.90
12874;DHT22;6505;51.114;13.128;2023-05-29T03:18:23;17.10;46.90
12874;DHT22;6505;51.114;13.128;2023-05-29T03:20:52;17.10;46.90
12874;DHT22;6505;51.114;13.128;2023-05-29T03:23:20;17.00;46.90
12874;DHT22;6505;51.114;13.128;2023-05-29T03:25:53;17.00;46.90
12874;DHT22;6505;51.114;13.128;2023-05-29T03:28:21;17.00;47.00
12874;DHT22;6505;51.114;13.128;2023-05-29T03:30:50;17.00;47.10
12874;DHT22;6505;51.114;13.128;2023-05-29T03:33:21;17.00;47.20
12874;DHT22;6505;51.114;13.128;2023-05-29T03:36:08;17.00;47.20
12874;DHT22;6505;51.114;13.128;2023-05-29T03:38:37;17.10;47.30
12874;DHT22;6505;51.114;13.128;2023-05-29T03:41:07;17.10;47.20
12874;DHT22;6505;51.114;13.128;2023-05-29T03:43:35;17.10;47.20
12874;DHT22;6505;51.114;13.128;2023-05-29T03:46:03;17.10;47.20
12874;DHT22;6505;51.114;13.128;2023-05-29T03:48:33;17.10;47.20
12874;DHT22;6505;51.114;13.128;2023-05-29T03:51:01;17.10;47.20
12874;DHT22;6505;51.114;13.128;2023-05-29T03:53:34;17.10;47.40
12874;DHT22;6505;51.114;13.128;2023-05-29T03:56:02;17.10;47.50
12874;DHT22;6505;51.114;13.128;2023-05-29T03:58:33;17.10;47.60
12874;DHT22;6505;51.114;13.128;2023-05-29T04:01:03;17.10;47.70
12874;DHT22;6505;51.114;13.128;2023-05-29T04:03:31;17.20;47.90
12874;DHT22;6505;51.114;13.128;2023-05-29T04:06:00;17.10;47.80
12874;DHT22;6505;51.114;13.128;2023-05-29T04:08:28;17.10;47.90
12874;DHT22;6505;51.114;13.128;2023-05-29T04:10:56;17.20;48.10
12874;DHT22;6505;51.114;13.128;2023-05-29T04:13:24;17.20;48.20
12874;DHT22;6505;51.114;13.128;2023-05-29T04:15:53;17.20;48.30
12874;DHT22;6505;51.114;13.128;2023-05-29T04:18:22;17.30;48.50
12874;DHT22;6505;51.114;13.128;2023-05-29T04:20:50;17.30;48.50
12874;DHT22;6505;51.114;13.128;2023-05-29T04:23:19;17.30;48.60
12874;DHT22;6505;51.114;13.128;2023-05-29T04:25:47;17.30;48.70
12874;DHT22;6505;51.114;13.128;2023-05-29T04:28:21;17.30;48.80
12874;DHT22;6505;51.114;13.128;2023-05-29T04:30:50;17.40;48.90
12874;DHT22;6505;51.114;13.128;2023-05-29T04:33:20;17.40;48.90
12874;DHT22;6505;51.114;13.128;2023-05-29T04:35:51;17.40;49.10
12874;DHT22;6505;51.114;13.128;2023-05-29T04:38:19;17.50;49.20
12874;DHT22;6505;51.114;13.128;2023-05-29T04:40:52;17.50;49.20
12874;DHT22;6505;51.114;13.128;2023-05-29T04:43:24;17.50;49.30
12874;DHT22;6505;51.114;13.128;2023-05-29T04:46:00;17.60;49.40
12874;DHT22;6505;51.114;13.128;2023-05-29T04:48:31;17.70;49.50
12874;DHT22;6505;51.114;13.128;2023-05-29T04:51:00;17.70;49.60
12874;DHT22;6505;51.114;13.128;2023-05-29T04:53:28;17.70;49.50
12874;DHT22;6505;51.114;13.128;2023-05-29T04:55:57;17.80;49.70
12874;DHT22;6505;51.114;13.128;2023-05-29T04:58:26;17.90;49.60
12874;DHT22;6505;51.114;13.128;2023-05-29T05:00:54;17.90;49.60
12874;DHT22;6505;51.114;13.128;2023-05-29T05:03:28;18.00;49.70
12874;DHT22;6505;51.114;13.128;2023-05-29T05:05:59;18.00;49.80
12874;DHT22;6505;51.114;13.128;2023-05-29T05:08:28;18.10;49.80
12874;DHT22;6505;51.114;13.128;2023-05-29T05:10:57;18.20;49.90
12874;DHT22;6505;51.114;13.128;2023-05-29T05:13:26;18.30;50.00
12874;DHT22;6505;51.114;13.128;2023-05-29T05:15:54;18.30;50.00
12874;DHT22;6505;51.114;13.128;2023-05-29T05:18:22;18.40;49.80
12874;DHT22;6505;51.114;13.128;2023-05-29T05:21:00;18.50;50.00
12874;DHT22;6505;51.114;13.128;2023-05-29T05:23:32;18.60;50.20
12874;DHT22;6505;51.114;13.128;2023-05-29T05:26:15;18.60;50.20
12874;DHT22;6505;51.114;13.128;2023-05-29T05:28:43;18.70;50.10
12874;DHT22;6505;51.114;13.128;2023-05-29T05:31:11;18.80;50.30
12874;DHT22;6505;51.114;13.128;2023-05-29T05:33:39;18.90;50.40
12874;DHT22;6505;51.114;13.128;2023-05-29T05:36:08;19.00;50.40
12874;DHT22;6505;51.114;13.128;2023-05-29T05:38:39;19.10;50.60
12874;DHT22;6505;51.114;13.128;2023-05-29T05:41:07;19.20;50.50
12874;DHT22;6505;51.114;13.128;2023-05-29T05:43:35;19.30;50.50
12874;DHT22;6505;51.114;13.128;2023-05-29T05:46:09;19.40;50.60
12874;DHT22;6505;51.114;13.128;2023-05-29T05:48:39;19.60;50.60
12874;DHT22;6505;51.114;13.128;2023-05-29T05:51:08;19.70;50.70
12874;DHT22;6505;51.114;13.128;2023-05-29T05:53:37;19.90;50.70
12874;DHT22;6505;51.114;13.128;2023-05-29T05:56:05;20.10;50.90
12874;DHT22;6505;51.114;13.128;2023-05-29T05:58:34;20.30;51.00
12874;DHT22;6505;51.114;13.128;2023-05-29T06:01:03;20.60;51.20
12874;DHT22;6505;51.114;13.128;2023-05-29T06:03:31;21.00;51.20
12874;DHT22;6505;51.114;13.128;2023-05-29T06:06:04;21.50;51.20
12874;DHT22;6505;51.114;13.128;2023-05-29T06:08:34;22.00;51.10
12874;DHT22;6505;51.114;13.128;2023-05-29T06:11:02;22.50;50.70
12874;DHT22;6505;51.114;13.128;2023-05-29T06:13:32;23.10;50.20
12874;DHT22;6505;51.114;13.128;2023-05-29T06:16:06;23.60;49.60
12874;DHT22;6505;51.114;13.128;2023-05-29T06:18:35;24.20;49.20
12874;DHT22;6505;51.114;13.128;2023-05-29T06:21:03;24.80;48.30
12874;DHT22;6505;51.114;13.128;2023-05-29T06:23:35;25.40;47.20
12874;DHT22;6505;51.114;13.128;2023-05-29T06:26:04;25.90;46.40
12874;DHT22;6505;51.114;13.128;2023-05-29T06:28:32;26.40;45.30
12874;DHT22;6505;51.114;13.128;2023-05-29T06:31:00;26.70;44.00
12874;DHT22;6505;51.114;13.128;2023-05-29T06:33:29;27.00;43.30
12874;DHT22;6505;51.114;13.128;2023-05-29T06:35:57;27.30;42.10
12874;DHT22;6505;51.114;13.128;2023-05-29T06:38:29;27.60;42.00
12874;DHT22;6505;51.114;13.128;2023-05-29T06:40:59;27.90;40.90
12874;DHT22;6505;51.114;13.128;2023-05-29T06:43:28;28.10;40.00
12874;DHT22;6505;51.114;13.128;2023-05-29T06:45:57;28.30;39.10
12874;DHT22;6505;51.114;13.128;2023-05-29T06:48:25;28.50;38.50
12874;DHT22;6505;51.114;13.128;2023-05-29T06:50:53;28.70;37.90
12874;DHT22;6505;51.114;13.128;2023-05-29T06:53:50;28.90;37.90
12874;DHT22;6505;51.114;13.128;2023-05-29T06:56:21;29.20;37.60
12874;DHT22;6505;51.114;13.128;2023-05-29T06:58:49;29.40;36.10
12874;DHT22;6505;51.114;13.128;2023-05-29T07:01:17;29.70;36.50
12874;DHT22;6505;51.114;13.128;2023-05-29T07:03:54;30.10;36.10
12874;DHT22;6505;51.114;13.128;2023-05-29T07:06:23;30.50;36.10
12874;DHT22;6505;51.114;13.128;2023-05-29T07:08:51;30.90;34.70
12874;DHT22;6505;51.114;13.128;2023-05-29T07:11:20;31.30;34.40
12874;DHT22;6505;51.114;13.128;2023-05-29T07:13:48;31.60;33.60
12874;DHT22;6505;51.114;13.128;2023-05-29T07:16:16;31.90;32.70
12874;DHT22;6505;51.114;13.128;2023-05-29T07:19:04;31.90;32.20
12874;DHT22;6505;51.114;13.128;2023-05-29T07:21:36;31.90;31.40
12874;DHT22;6505;51.114;13.128;2023-05-29T07:24:05;31.70;30.80
12874;DHT22;6505;51.114;13.128;2023-05-29T07:26:36;31.40;31.00
12874;DHT22;6505;51.114;13.128;2023-05-29T07:29:04;31.20;31.70
12874;DHT22;6505;51.114;13.128;2023-05-29T07:31:33;31.20;31.80
12874;DHT22;6505;51.114;13.128;2023-05-29T07:34:01;31.30;31.90
12874;DHT22;6505;51.114;13.128;2023-05-29T07:36:30;31.50;31.30
12874;DHT22;6505;51.114;13.128;2023-05-29T07:39:00;31.90;30.40
12874;DHT22;6505;51.114;13.128;2023-05-29T07:41:29;32.30;30.20
12874;DHT22;6505;51.114;13.128;2023-05-29T07:43:58;32.50;29.60
12874;DHT22;6505;51.114;13.128;2023-05-29T07:46:26;32.90;29.30
12874;DHT22;6505;51.114;13.128;2023-05-29T07:49:10;33.20;29.20
12874;DHT22;6505;51.114;13.128;2023-05-29T07:51:38;33.50;28.80
12874;DHT22;6505;51.114;13.128;2023-05-29T07:54:06;33.80;28.50
12874;DHT22;6505;51.114;13.128;2023-05-29T07:56:35;34.10;27.90
12874;DHT22;6505;51.114;13.128;2023-05-29T07:59:05;34.40;27.60
12874;DHT22;6505;51.114;13.128;2023-05-29T08:01:36;34.60;27.20
12874;DHT22;6505;51.114;13.128;2023-05-29T08:04:07;34.80;26.70
12874;DHT22;6505;51.114;13.128;2023-05-29T08:06:36;35.00;26.60
12874;DHT22;6505;51.114;13.128;2023-05-29T08:09:04;35.10;25.30
12874;DHT22;6505;51.114;13.128;2023-05-29T08:11:33;35.20;25.50
12874;DHT22;6505;51.114;13.128;2023-05-29T08:14:01;35.20;25.10
12874;DHT22;6505;51.114;13.128;2023-05-29T08:16:31;35.20;25.00
12874;DHT22;6505;51.114;13.128;2023-05-29T08:19:00;35.20;25.00
12874;DHT22;6505;51.114;13.128;2023-05-29T08:21:28;35.20;25.10
12874;DHT22;6505;51.114;13.128;2023-05-29T08:23:56;35.10;25.30
12874;DHT22;6505;51.114;13.128;2023-05-29T08:26:24;35.00;25.70
12874;DHT22;6505;51.114;13.128;2023-05-29T08:28:52;35.00;25.60
12874;DHT22;6505;51.114;13.128;2023-05-29T08:31:21;34.80;25.50
12874;DHT22;6505;51.114;13.128;2023-05-29T08:33:52;34.70;25.30
12874;DHT22;6505;51.114;13.128;2023-05-29T08:36:20;34.60;25.40
12874;DHT22;6505;51.114;13.128;2023-05-29T08:38:49;34.40;25.50
12874;DHT22;6505;51.114;13.128;2023-05-29T08:41:21;34.30;25.80
12874;DHT22;6505;51.114;13.128;2023-05-29T08:43:53;34.10;25.40
12874;DHT22;6505;51.114;13.128;2023-05-29T08:46:21;33.90;25.80
12874;DHT22;6505;51.114;13.128;2023-05-29T08:48:53;33.80;25.90
12874;DHT22;6505;51.114;13.128;2023-05-29T08:51:30;33.60;25.90
12874;DHT22;6505;51.114;13.128;2023-05-29T08:54:01;33.50;26.30
12874;DHT22;6505;51.114;13.128;2023-05-29T08:56:29;33.30;26.10
12874;DHT22;6505;51.114;13.128;2023-05-29T08:59:01;33.20;26.20
12874;DHT22;6505;51.114;13.128;2023-05-29T09:01:33;33.00;26.70
12874;DHT22;6505;51.114;13.128;2023-05-29T09:04:04;33.00;27.00
12874;DHT22;6505;51.114;13.128;2023-05-29T09:06:33;32.80;26.70
12874;DHT22;6505;51.114;13.128;2023-05-29T09:09:01;32.70;27.20
12874;DHT22;6505;51.114;13.128;2023-05-29T09:11:31;32.50;27.50
12874;DHT22;6505;51.114;13.128;2023-05-29T09:13:59;32.40;27.90
12874;DHT22;6505;51.114;13.128;2023-05-29T09:16:29;32.20;27.90
12874;DHT22;6505;51.114;13.128;2023-05-29T09:19:06;32.10;27.90
12874;DHT22;6505;51.114;13.128;2023-05-29T09:21:38;31.90;27.60
12874;DHT22;6505;51.114;13.128;2023-05-29T09:24:06;31.80;27.50
12874;DHT22;6505;51.114;13.128;2023-05-29T09:26:34;31.60;27.20
12874;DHT22;6505;51.114;13.128;2023-05-29T09:29:03;31.40;27.40
12874;DHT22;6505;51.114;13.128;2023-05-29T09:31:31;31.30;27.80
12874;DHT22;6505;51.114;13.128;2023-05-29T09:34:04;31.10;28.00
12874;DHT22;6505;51.114;13.128;2023-05-29T09:36:32;30.90;28.20
12874;DHT22;6505;51.114;13.128;2023-05-29T09:39:02;30.70;28.50
12874;DHT22;6505;51.114;13.128;2023-05-29T09:41:43;30.60;28.10
12874;DHT22;6505;51.114;13.128;2023-05-29T09:44:12;30.30;27.80
12874;DHT22;6505;51.114;13.128;2023-05-29T09:46:41;30.10;28.00
12874;DHT22;6505;51.114;13.128;2023-05-29T09:49:12;30.00;28.20
12874;DHT22;6505;51.114;13.128;2023-05-29T09:51:40;29.80;28.80
12874;DHT22;6505;51.114;13.128;2023-05-29T09:54:15;29.60;28.60
12874;DHT22;6505;51.114;13.128;2023-05-29T09:56:44;29.50;29.00
12874;DHT22;6505;51.114;13.128;2023-05-29T09:59:14;29.30;28.80
12874;DHT22;6505;51.114;13.128;2023-05-29T10:01:47;29.30;28.70
12874;DHT22;6505;51.114;13.128;2023-05-29T10:04:16;29.00;29.00
12874;DHT22;6505;51.114;13.128;2023-05-29T10:06:45;28.90;29.10
12874;DHT22;6505;51.114;13.128;2023-05-29T10:09:18;28.70;29.50
12874;DHT22;6505;51.114;13.128;2023-05-29T10:11:49;28.60;30.00
12874;DHT22;6505;51.114;13.128;2023-05-29T10:14:21;28.50;29.80
12874;DHT22;6505;51.114;13.128;2023-05-29T10:16:56;28.30;29.30
12874;DHT22;6505;51.114;13.128;2023-05-29T10:19:32;28.20;29.90
12874;DHT22;6505;51.114;13.128;2023-05-29T10:22:01;28.10;29.90
12874;DHT22;6505;51.114;13.128;2023-05-29T10:24:31;28.00;29.90
12874;DHT22;6505;51.114;13.128;2023-05-29T10:27:00;27.90;30.30
12874;DHT22;6505;51.114;13.128;2023-05-29T10:29:35;27.80;31.00
12874;DHT22;6505;51.114;13.128;2023-05-29T10:32:12;27.70;30.90
12874;DHT22;6505;51.114;13.128;2023-05-29T10:34:57;27.60;30.60
12874;DHT22;6505;51.114;13.128;2023-05-29T10:37:39;27.50;30.80
12874;DHT22;6505;51.114;13.128;2023-05-29T10:40:11;27.40;30.80
12874;DHT22;6505;51.114;13.128;2023-05-29T10:42:44;27.30;30.50
12874;DHT22;6505;51.114;13.128;2023-05-29T10:45:48;27.30;31.40
12874;DHT22;6505;51.114;13.128;2023-05-29T10:48:40;27.20;31.70
12874;DHT22;6505;51.114;13.128;2023-05-29T10:51:27;27.10;31.70
12874;DHT22;6505;51.114;13.128;2023-05-29T10:53:58;27.00;31.90
12874;DHT22;6505;51.114;13.128;2023-05-29T10:56:29;27.00;31.50
12874;DHT22;6505;51.114;13.128;2023-05-29T10:58:59;26.90;31.20
12874;DHT22;6505;51.114;13.128;2023-05-29T11:01:30;26.80;30.60
12874;DHT22;6505;51.114;13.128;2023-05-29T11:04:27;26.80;30.80
12874;DHT22;6505;51.114;13.128;2023-05-29T11:07:00;26.70;31.20
12874;DHT22;6505;51.114;13.128;2023-05-29T11:09:32;26.70;31.60
12874;DHT22;6505;51.114;13.128;2023-05-29T11:12:12;26.70;30.60
12874;DHT22;6505;51.114;13.128;2023-05-29T11:14:47;26.70;29.50
12874;DHT22;6505;51.114;13.128;2023-05-29T11:17:29;26.60;30.00
12874;DHT22;6505;51.114;13.128;2023-05-29T11:20:02;26.60;30.40
12874;DHT22;6505;51.114;13.128;2023-05-29T11:22:51;26.60;30.30
12874;DHT22;6505;51.114;13.128;2023-05-29T11:25:28;26.50;30.10
12874;DHT22;6505;51.114;13.128;2023-05-29T11:27:59;26.60;30.10
12874;DHT22;6505;51.114;13.128;2023-05-29T11:30:27;26.50;29.90
12874;DHT22;6505;51.114;13.128;2023-05-29T11:33:00;26.50;30.00
12874;DHT22;6505;51.114;13.128;2023-05-29T11:35:33;26.50;30.00
12874;DHT22;6505;51.114;13.128;2023-05-29T11:38:03;26.50;30.10
12874;DHT22;6505;51.114;13.128;2023-05-29T11:40:35;26.40;30.20
12874;DHT22;6505;51.114;13.128;2023-05-29T11:43:04;26.40;31.00
12874;DHT22;6505;51.114;13.128;2023-05-29T11:45:33;26.40;30.60
12874;DHT22;6505;51.114;13.128;2023-05-29T11:48:03;26.40;31.00
12874;DHT22;6505;51.114;13.128;2023-05-29T11:50:32;26.50;30.60
12874;DHT22;6505;51.114;13.128;2023-05-29T11:53:02;26.40;30.80
12874;DHT22;6505;51.114;13.128;2023-05-29T11:55:33;26.40;30.20
12874;DHT22;6505;51.114;13.128;2023-05-29T11:58:03;26.40;30.40
12874;DHT22;6505;51.114;13.128;2023-05-29T12:00:33;26.40;30.50
12874;DHT22;6505;51.114;13.128;2023-05-29T12:03:03;26.40;30.50
12874;DHT22;6505;51.114;13.128;2023-05-29T12:05:32;26.40;30.90
12874;DHT22;6505;51.114;13.128;2023-05-29T12:08:12;26.40;31.00
12874;DHT22;6505;51.114;13.128;2023-05-29T12:10:46;26.40;30.90
12874;DHT22;6505;51.114;13.128;2023-05-29T12:13:15;26.40;30.60
12874;DHT22;6505;51.114;13.128;2023-05-29T12:15:45;26.40;30.60
12874;DHT22;6505;51.114;13.128;2023-05-29T12:18:15;26.30;30.80
12874;DHT22;6505;51.114;13.128;2023-05-29T12:20:43;26.30;30.50
12874;DHT22;6505;51.114;13.128;2023-05-29T12:23:13;26.30;30.60
12874;DHT22;6505;51.114;13.128;2023-05-29T12:25:41;26.30;30.80
12874;DHT22;6505;51.114;13.128;2023-05-29T12:28:16;26.20;31.30
12874;DHT22;6505;51.114;13.128;2023-05-29T12:30:47;26.30;31.50
12874;DHT22;6505;51.114;13.128;2023-05-29T12:33:32;26.30;31.00
12874;DHT22;6505;51.114;13.128;2023-05-29T12:36:07;26.20;30.70
12874;DHT22;6505;51.114;13.128;2023-05-29T12:38:48;26.20;30.50
12874;DHT22;6505;51.114;13.128;2023-05-29T12:41:24;26.10;30.80
12874;DHT22;6505;51.114;13.128;2023-05-29T12:43:55;26.20;30.40
12874;DHT22;6505;51.114;13.128;2023-05-29T12:46:24;26.10;31.10
12874;DHT22;6505;51.114;13.128;2023-05-29T12:48:54;26.10;31.30
12874;DHT22;6505;51.114;13.128;2023-05-29T12:51:23;26.10;31.50
12874;DHT22;6505;51.114;13.128;2023-05-29T12:53:53;26.10;31.50
12874;DHT22;6505;51.114;13.128;2023-05-29T12:56:22;26.10;31.10
12874;DHT22;6505;51.114;13.128;2023-05-29T12:58:53;26.10;31.30
12874;DHT22;6505;51.114;13.128;2023-05-29T13:01:21;26.10;32.20
12874;DHT22;6505;51.114;13.128;2023-05-29T13:03:50;26.10;31.20
12874;DHT22;6505;51.114;13.128;2023-05-29T13:06:18;26.20;31.60
12874;DHT22;6505;51.114;13.128;2023-05-29T13:08:46;26.20;32.10
12874;DHT22;6505;51.114;13.128;2023-05-29T13:11:16;26.20;32.20
12874;DHT22;6505;51.114;13.128;2023-05-29T13:13:43;26.20;32.70
12874;DHT22;6505;51.114;13.128;2023-05-29T13:16:11;26.20;32.60
12874;DHT22;6505;51.114;13.128;2023-05-29T13:18:40;26.20;32.30
12874;DHT22;6505;51.114;13.128;2023-05-29T13:21:07;26.20;32.50
12874;DHT22;6505;51.114;13.128;2023-05-29T13:23:36;26.20;32.70
12874;DHT22;6505;51.114;13.128;2023-05-29T13:26:04;26.20;33.00
12874;DHT22;6505;51.114;13.128;2023-05-29T13:28:34;26.20;32.50
12874;DHT22;6505;51.114;13.128;2023-05-29T13:31:02;26.20;32.80
12874;DHT22;6505;51.114;13.128;2023-05-29T13:33:30;26.20;32.90
12874;DHT22;6505;51.114;13.128;2023-05-29T13:35:58;26.20;32.60
12874;DHT22;6505;51.114;13.128;2023-05-29T13:38:27;26.20;33.10
12874;DHT22;6505;51.114;13.128;2023-05-29T13:40:55;26.20;33.10
12874;DHT22;6505;51.114;13.128;2023-05-29T13:43:23;26.30;33.00
12874;DHT22;6505;51.114;13.128;2023-05-29T13:46:06;26.20;32.90
12874;DHT22;6505;51.114;13.128;2023-05-29T13:48:34;26.20;33.30
12874;DHT22;6505;51.114;13.128;2023-05-29T13:51:02;26.20;33.10
12874;DHT22;6505;51.114;13.128;2023-05-29T13:53:31;26.20;33.00
12874;DHT22;6505;51.114;13.128;2023-05-29T13:55:59;26.30;33.10
12874;DHT22;6505;51.114;13.128;2023-05-29T13:58:27;26.20;33.00
12874;DHT22;6505;51.114;13.128;2023-05-29T14:00:55;26.20;33.10
12874;DHT22;6505;51.114;13.128;2023-05-29T14:03:25;26.20;32.60
12874;DHT22;6505;51.114;13.128;2023-05-29T14:05:56;26.20;33.10
12874;DHT22;6505;51.114;13.128;2023-05-29T14:08:24;26.20;33.40
12874;DHT22;6505;51.114;13.128;2023-05-29T14:10:52;26.20;33.50
12874;DHT22;6505;51.114;13.128;2023-05-29T14:13:20;26.20;33.10
12874;DHT22;6505;51.114;13.128;2023-05-29T14:15:48;26.20;33.10
12874;DHT22;6505;51.114;13.128;2023-05-29T14:18:17;26.10;33.40
12874;DHT22;6505;51.114;13.128;2023-05-29T14:20:46;26.20;33.80
12874;DHT22;6505;51.114;13.128;2023-05-29T14:23:16;26.20;34.30
12874;DHT22;6505;51.114;13.128;2023-05-29T14:25:45;26.20;33.90
12874;DHT22;6505;51.114;13.128;2023-05-29T14:28:13;26.20;33.90
12874;DHT22;6505;51.114;13.128;2023-05-29T14:30:41;26.20;33.90
12874;DHT22;6505;51.114;13.128;2023-05-29T14:33:09;26.10;33.30
12874;DHT22;6505;51.114;13.128;2023-05-29T14:35:37;26.10;33.40
12874;DHT22;6505;51.114;13.128;2023-05-29T14:38:06;26.10;33.80
12874;DHT22;6505;51.114;13.128;2023-05-29T14:40:34;26.10;33.30
12874;DHT22;6505;51.114;13.128;2023-05-29T14:43:03;26.10;33.80
12874;DHT22;6505;51.114;13.128;2023-05-29T14:45:32;26.10;33.30
12874;DHT22;6505;51.114;13.128;2023-05-29T14:48:00;26.00;32.90
12874;DHT22;6505;51.114;13.128;2023-05-29T14:50:28;26.00;32.70
12874;DHT22;6505;51.114;13.128;2023-05-29T14:52:57;26.00;32.70
12874;DHT22;6505;51.114;13.128;2023-05-29T14:55:26;26.00;32.70
12874;DHT22;6505;51.114;13.128;2023-05-29T14:57:54;26.00;33.10
12874;DHT22;6505;51.114;13.128;2023-05-29T15:00:22;25.90;33.20
12874;DHT22;6505;51.114;13.128;2023-05-29T15:02:50;25.90;33.20
12874;DHT22;6505;51.114;13.128;2023-05-29T15:05:19;25.90;33.00
12874;DHT22;6505;51.114;13.128;2023-05-29T15:07:47;25.90;33.40
12874;DHT22;6505;51.114;13.128;2023-05-29T15:10:15;25.90;33.70
12874;DHT22;6505;51.114;13.128;2023-05-29T15:12:48;25.90;33.80
12874;DHT22;6505;51.114;13.128;2023-05-29T15:15:16;25.90;34.00
12874;DHT22;6505;51.114;13.128;2023-05-29T15:17:44;25.80;33.60
12874;DHT22;6505;51.114;13.128;2023-05-29T15:20:13;25.80;33.60
12874;DHT22;6505;51.114;13.128;2023-05-29T15:22:44;25.80;33.70
12874;DHT22;6505;51.114;13.128;2023-05-29T15:25:12;25.80;33.80
12874;DHT22;6505;51.114;13.128;2023-05-29T15:27:40;25.80;34.00
12874;DHT22;6505;51.114;13.128;2023-05-29T15:30:10;25.70;34.10
12874;DHT22;6505;51.114;13.128;2023-05-29T15:32:39;25.70;34.50
12874;DHT22;6505;51.114;13.128;2023-05-29T15:35:08;25.70;34.60
12874;DHT22;6505;51.114;13.128;2023-05-29T15:37:38;25.70;34.70
12874;DHT22;6505;51.114;13.128;2023-05-29T15:40:07;25.70;34.80
12874;DHT22;6505;51.114;13.128;2023-05-29T15:42:36;25.70;34.90
12874;DHT22;6505;51.114;13.128;2023-05-29T15:45:08;25.60;34.90
12874;DHT22;6505;51.114;13.128;2023-05-29T15:47:37;25.60;34.90
12874;DHT22;6505;51.114;13.128;2023-05-29T15:50:06;25.60;34.70